sensor_id;sensor_type;location;lat;lon;timestamp;P1;durP1;ratioP1;P2;durP2;ratioP2
11962;SDS011;62678;52.130;5.584;2022-11-03T00:00:09;15.95;;;3.20;;
11962;SDS011;62678;52.130;5.584;2022-11-03T00:02:40;18.35;;;2.70;;
11962;SDS011;62678;52.130;5.584;2022-11-03T00:05:08;13.57;;;2.88;;
11962;SDS011;62678;52.130;5.584;2022-11-03T00:07:52;14.05;;;2.50;;
11962;SDS011;62678;52.130;5.584;2022-11-03T00:10:19;19.00;;;3.17;;
11962;SDS011;62678;52.130;5.584;2022-11-03T00:12:46;13.05;;;2.75;;
11962;SDS011;62678;52.130;5.584;2022-11-03T00:15:13;13.15;;;2.55;;
11962;SDS011;62678;52.130;5.584;2022-11-03T00:17:39;13.60;;;2.97;;
11962;SDS011;62678;52.130;5.584;2022-11-03T00:20:09;17.33;;;3.50;;
11962;SDS011;62678;52.130;5.584;2022-11-03T00:22:36;16.98;;;3.13;;
11962;SDS011;62678;52.130;5.584;2022-11-03T00:25:03;14.55;;;3.10;;
11962;SDS011;62678;52.130;5.584;2022-11-03T00:27:31;15.27;;;3.28;;
11962;SDS011;62678;52.130;5.584;2022-11-03T00:29:57;17.20;;;3.50;;
11962;SDS011;62678;52.130;5.584;2022-11-03T00:32:24;14.82;;;3.00;;
11962;SDS011;62678;52.130;5.584;2022-11-03T00:34:51;18.02;;;3.20;;
11962;SDS011;62678;52.130;5.584;2022-11-03T00:37:19;17.58;;;3.55;;
11962;SDS011;62678;52.130;5.584;2022-11-03T00:39:46;17.00;;;3.53;;
11962;SDS011;62678;52.130;5.584;2022-11-03T00:42:13;15.90;;;3.25;;
11962;SDS011;62678;52.130;5.584;2022-11-03T00:44:40;17.27;;;2.67;;
11962;SDS011;62678;52.130;5.584;2022-11-03T00:47:06;16.05;;;2.90;;
11962;SDS011;62678;52.130;5.584;2022-11-03T00:49:33;17.02;;;3.33;;
11962;SDS011;62678;52.130;5.584;2022-11-03T00:52:00;14.70;;;2.63;;
11962;SDS011;62678;52.130;5.584;2022-11-03T00:54:28;13.65;;;2.72;;
11962;SDS011;62678;52.130;5.584;2022-11-03T00:56:55;16.40;;;3.30;;
11962;SDS011;62678;52.130;5.584;2022-11-03T00:59:22;12.88;;;2.58;;
11962;SDS011;62678;52.130;5.584;2022-11-03T01:01:48;16.42;;;3.03;;
11962;SDS011;62678;52.130;5.584;2022-11-03T01:04:16;17.70;;;3.42;;
11962;SDS011;62678;52.130;5.584;2022-11-03T01:07:01;22.00;;;3.50;;
11962;SDS011;62678;52.130;5.584;2022-11-03T01:09:34;14.18;;;3.28;;
11962;SDS011;62678;52.130;5.584;2022-11-03T01:12:02;13.07;;;2.80;;
11962;SDS011;62678;52.130;5.584;2022-11-03T01:14:32;16.13;;;2.80;;
11962;SDS011;62678;52.130;5.584;2022-11-03T01:17:00;12.75;;;3.00;;
11962;SDS011;62678;52.130;5.584;2022-11-03T01:19:26;14.77;;;2.65;;
11962;SDS011;62678;52.130;5.584;2022-11-03T01:21:53;14.00;;;2.85;;
11962;SDS011;62678;52.130;5.584;2022-11-03T01:24:20;13.38;;;2.97;;
11962;SDS011;62678;52.130;5.584;2022-11-03T01:26:49;16.13;;;2.72;;
11962;SDS011;62678;52.130;5.584;2022-11-03T01:29:16;13.20;;;2.72;;
11962;SDS011;62678;52.130;5.584;2022-11-03T01:31:43;11.38;;;2.72;;
11962;SDS011;62678;52.130;5.584;2022-11-03T01:34:11;16.55;;;3.25;;
11962;SDS011;62678;52.130;5.584;2022-11-03T01:36:40;14.52;;;2.88;;
11962;SDS011;62678;52.130;5.584;2022-11-03T01:39:08;18.67;;;3.47;;
11962;SDS011;62678;52.130;5.584;2022-11-03T01:41:35;14.48;;;2.40;;
11962;SDS011;62678;52.130;5.584;2022-11-03T01:46:58;15.23;;;3.33;;
11962;SDS011;62678;52.130;5.584;2022-11-03T01:49:31;14.32;;;3.08;;
11962;SDS011;62678;52.130;5.584;2022-11-03T01:52:02;13.30;;;2.72;;
11962;SDS011;62678;52.130;5.584;2022-11-03T01:54:33;17.10;;;3.13;;
11962;SDS011;62678;52.130;5.584;2022-11-03T01:57:03;14.80;;;2.58;;
11962;SDS011;62678;52.130;5.584;2022-11-03T01:59:36;16.27;;;3.15;;
11962;SDS011;62678;52.130;5.584;2022-11-03T02:02:03;14.40;;;2.45;;
11962;SDS011;62678;52.130;5.584;2022-11-03T02:04:31;14.90;;;2.60;;
11962;SDS011;62678;52.130;5.584;2022-11-03T02:07:02;11.18;;;2.53;;
11962;SDS011;62678;52.130;5.584;2022-11-03T02:09:36;14.70;;;3.22;;
11962;SDS011;62678;52.130;5.584;2022-11-03T02:12:03;17.25;;;2.92;;
11962;SDS011;62678;52.130;5.584;2022-11-03T02:14:31;14.82;;;2.97;;
11962;SDS011;62678;52.130;5.584;2022-11-03T02:17:01;11.55;;;2.75;;
11962;SDS011;62678;52.130;5.584;2022-11-03T02:19:32;16.80;;;3.00;;
11962;SDS011;62678;52.130;5.584;2022-11-03T02:22:02;12.10;;;2.85;;
11962;SDS011;62678;52.130;5.584;2022-11-03T02:24:46;14.18;;;3.17;;
11962;SDS011;62678;52.130;5.584;2022-11-03T02:27:17;12.13;;;2.65;;
11962;SDS011;62678;52.130;5.584;2022-11-03T02:29:44;15.70;;;3.13;;
11962;SDS011;62678;52.130;5.584;2022-11-03T02:32:14;17.42;;;2.65;;
11962;SDS011;62678;52.130;5.584;2022-11-03T02:34:47;14.35;;;2.72;;
11962;SDS011;62678;52.130;5.584;2022-11-03T02:37:16;12.90;;;2.80;;
11962;SDS011;62678;52.130;5.584;2022-11-03T02:39:47;15.07;;;3.05;;
11962;SDS011;62678;52.130;5.584;2022-11-03T02:42:20;16.60;;;2.95;;
11962;SDS011;62678;52.130;5.584;2022-11-03T02:44:50;14.73;;;3.78;;
11962;SDS011;62678;52.130;5.584;2022-11-03T02:47:18;12.75;;;2.72;;
11962;SDS011;62678;52.130;5.584;2022-11-03T02:49:49;13.73;;;3.10;;
11962;SDS011;62678;52.130;5.584;2022-11-03T02:52:32;11.82;;;3.05;;
11962;SDS011;62678;52.130;5.584;2022-11-03T02:55:01;16.50;;;3.08;;
11962;SDS011;62678;52.130;5.584;2022-11-03T02:57:37;17.90;;;3.33;;
11962;SDS011;62678;52.130;5.584;2022-11-03T03:00:10;14.98;;;2.80;;
11962;SDS011;62678;52.130;5.584;2022-11-03T03:02:39;17.83;;;3.00;;
11962;SDS011;62678;52.130;5.584;2022-11-03T03:05:12;13.43;;;3.00;;
11962;SDS011;62678;52.130;5.584;2022-11-03T03:07:43;13.65;;;3.10;;
11962;SDS011;62678;52.130;5.584;2022-11-03T03:10:13;14.88;;;3.08;;
11962;SDS011;62678;52.130;5.584;2022-11-03T03:12:48;14.93;;;3.58;;
11962;SDS011;62678;52.130;5.584;2022-11-03T03:15:18;16.33;;;2.95;;
11962;SDS011;62678;52.130;5.584;2022-11-03T03:17:49;16.33;;;3.00;;
11962;SDS011;62678;52.130;5.584;2022-11-03T03:20:19;13.43;;;3.35;;
11962;SDS011;62678;52.130;5.584;2022-11-03T03:22:50;16.20;;;2.97;;
11962;SDS011;62678;52.130;5.584;2022-11-03T03:25:21;11.57;;;3.08;;
11962;SDS011;62678;52.130;5.584;2022-11-03T03:27:54;11.02;;;3.03;;
11962;SDS011;62678;52.130;5.584;2022-11-03T03:30:25;19.42;;;3.38;;
11962;SDS011;62678;52.130;5.584;2022-11-03T03:32:54;16.58;;;3.45;;
11962;SDS011;62678;52.130;5.584;2022-11-03T03:35:24;12.43;;;3.25;;
11962;SDS011;62678;52.130;5.584;2022-11-03T03:37:55;16.92;;;2.78;;
11962;SDS011;62678;52.130;5.584;2022-11-03T03:40:27;14.65;;;2.88;;
11962;SDS011;62678;52.130;5.584;2022-11-03T03:42:58;12.65;;;2.70;;
11962;SDS011;62678;52.130;5.584;2022-11-03T03:45:26;18.08;;;3.20;;
11962;SDS011;62678;52.130;5.584;2022-11-03T03:47:54;14.18;;;2.83;;
11962;SDS011;62678;52.130;5.584;2022-11-03T03:50:21;15.90;;;3.25;;
11962;SDS011;62678;52.130;5.584;2022-11-03T03:52:53;11.68;;;2.83;;
11962;SDS011;62678;52.130;5.584;2022-11-03T03:55:20;11.68;;;3.38;;
11962;SDS011;62678;52.130;5.584;2022-11-03T03:57:50;16.85;;;3.75;;
11962;SDS011;62678;52.130;5.584;2022-11-03T04:00:18;20.45;;;4.03;;
11962;SDS011;62678;52.130;5.584;2022-11-03T04:02:45;13.07;;;2.63;;
11962;SDS011;62678;52.130;5.584;2022-11-03T04:05:12;13.65;;;2.78;;
11962;SDS011;62678;52.130;5.584;2022-11-03T04:07:39;15.18;;;2.90;;
11962;SDS011;62678;52.130;5.584;2022-11-03T04:10:15;14.75;;;2.72;;
11962;SDS011;62678;52.130;5.584;2022-11-03T04:12:43;14.00;;;2.63;;
11962;SDS011;62678;52.130;5.584;2022-11-03T04:15:29;19.80;;;3.30;;
11962;SDS011;62678;52.130;5.584;2022-11-03T04:18:13;15.50;;;3.00;;
11962;SDS011;62678;52.130;5.584;2022-11-03T04:20:58;16.20;;;2.75;;
11962;SDS011;62678;52.130;5.584;2022-11-03T04:23:42;14.10;;;3.20;;
11962;SDS011;62678;52.130;5.584;2022-11-03T04:26:10;17.30;;;3.33;;
11962;SDS011;62678;52.130;5.584;2022-11-03T04:28:38;13.73;;;3.85;;
11962;SDS011;62678;52.130;5.584;2022-11-03T04:31:09;12.00;;;2.40;;
11962;SDS011;62678;52.130;5.584;2022-11-03T04:33:37;17.45;;;2.95;;
11962;SDS011;62678;52.130;5.584;2022-11-03T04:36:08;17.27;;;3.72;;
11962;SDS011;62678;52.130;5.584;2022-11-03T04:38:38;14.15;;;3.13;;
11962;SDS011;62678;52.130;5.584;2022-11-03T04:41:06;16.45;;;3.13;;
11962;SDS011;62678;52.130;5.584;2022-11-03T04:43:39;12.57;;;2.75;;
11962;SDS011;62678;52.130;5.584;2022-11-03T04:46:07;12.95;;;3.13;;
11962;SDS011;62678;52.130;5.584;2022-11-03T04:48:37;15.38;;;2.80;;
11962;SDS011;62678;52.130;5.584;2022-11-03T04:51:09;14.90;;;2.55;;
11962;SDS011;62678;52.130;5.584;2022-11-03T04:53:39;14.45;;;2.72;;
11962;SDS011;62678;52.130;5.584;2022-11-03T04:56:12;15.40;;;3.30;;
11962;SDS011;62678;52.130;5.584;2022-11-03T04:58:42;13.68;;;2.40;;
11962;SDS011;62678;52.130;5.584;2022-11-03T05:01:12;13.38;;;3.10;;
11962;SDS011;62678;52.130;5.584;2022-11-03T05:03:40;13.38;;;3.10;;
11962;SDS011;62678;52.130;5.584;2022-11-03T05:06:09;15.55;;;3.50;;
11962;SDS011;62678;52.130;5.584;2022-11-03T05:08:39;15.75;;;3.03;;
11962;SDS011;62678;52.130;5.584;2022-11-03T05:11:14;11.70;;;3.15;;
11962;SDS011;62678;52.130;5.584;2022-11-03T05:13:46;10.77;;;2.83;;
11962;SDS011;62678;52.130;5.584;2022-11-03T05:16:15;15.05;;;3.10;;
11962;SDS011;62678;52.130;5.584;2022-11-03T05:18:43;13.25;;;3.20;;
11962;SDS011;62678;52.130;5.584;2022-11-03T05:21:11;14.80;;;2.92;;
11962;SDS011;62678;52.130;5.584;2022-11-03T05:23:41;18.23;;;3.17;;
11962;SDS011;62678;52.130;5.584;2022-11-03T05:26:12;14.80;;;3.00;;
11962;SDS011;62678;52.130;5.584;2022-11-03T05:28:43;14.10;;;2.78;;
11962;SDS011;62678;52.130;5.584;2022-11-03T05:31:15;12.07;;;2.53;;
11962;SDS011;62678;52.130;5.584;2022-11-03T05:33:47;10.68;;;2.80;;
11962;SDS011;62678;52.130;5.584;2022-11-03T05:36:24;12.70;;;3.05;;
11962;SDS011;62678;52.130;5.584;2022-11-03T05:38:55;13.15;;;3.33;;
11962;SDS011;62678;52.130;5.584;2022-11-03T05:41:25;16.10;;;3.10;;
11962;SDS011;62678;52.130;5.584;2022-11-03T05:43:57;12.25;;;2.95;;
11962;SDS011;62678;52.130;5.584;2022-11-03T05:46:28;16.38;;;3.42;;
11962;SDS011;62678;52.130;5.584;2022-11-03T05:48:57;13.32;;;3.13;;
11962;SDS011;62678;52.130;5.584;2022-11-03T05:51:28;12.77;;;3.03;;
11962;SDS011;62678;52.130;5.584;2022-11-03T05:54:00;12.40;;;2.95;;
11962;SDS011;62678;52.130;5.584;2022-11-03T05:56:29;12.80;;;2.83;;
11962;SDS011;62678;52.130;5.584;2022-11-03T05:58:58;12.02;;;2.63;;
11962;SDS011;62678;52.130;5.584;2022-11-03T06:01:29;16.95;;;3.30;;
11962;SDS011;62678;52.130;5.584;2022-11-03T06:03:58;15.13;;;2.67;;
11962;SDS011;62678;52.130;5.584;2022-11-03T06:06:26;10.55;;;2.97;;
11962;SDS011;62678;52.130;5.584;2022-11-03T06:08:58;10.07;;;3.25;;
11962;SDS011;62678;52.130;5.584;2022-11-03T06:11:27;13.43;;;3.20;;
11962;SDS011;62678;52.130;5.584;2022-11-03T06:13:58;11.80;;;2.88;;
11962;SDS011;62678;52.130;5.584;2022-11-03T06:16:33;12.18;;;2.70;;
11962;SDS011;62678;52.130;5.584;2022-11-03T06:19:12;16.20;;;2.70;;
11962;SDS011;62678;52.130;5.584;2022-11-03T06:21:46;14.23;;;3.10;;
11962;SDS011;62678;52.130;5.584;2022-11-03T06:24:13;13.25;;;3.10;;
11962;SDS011;62678;52.130;5.584;2022-11-03T06:26:42;13.13;;;2.97;;
11962;SDS011;62678;52.130;5.584;2022-11-03T06:29:13;11.48;;;3.13;;
11962;SDS011;62678;52.130;5.584;2022-11-03T06:31:42;17.38;;;3.60;;
11962;SDS011;62678;52.130;5.584;2022-11-03T06:34:17;14.40;;;3.75;;
11962;SDS011;62678;52.130;5.584;2022-11-03T06:37:00;9.60;;;2.67;;
11962;SDS011;62678;52.130;5.584;2022-11-03T06:39:35;13.98;;;3.05;;
11962;SDS011;62678;52.130;5.584;2022-11-03T06:42:08;11.02;;;2.78;;
11962;SDS011;62678;52.130;5.584;2022-11-03T06:44:36;17.88;;;3.45;;
11962;SDS011;62678;52.130;5.584;2022-11-03T06:47:12;12.30;;;3.03;;
11962;SDS011;62678;52.130;5.584;2022-11-03T06:49:50;10.30;;;2.90;;
11962;SDS011;62678;52.130;5.584;2022-11-03T06:52:27;10.48;;;3.10;;
11962;SDS011;62678;52.130;5.584;2022-11-03T06:55:14;17.05;;;3.58;;
11962;SDS011;62678;52.130;5.584;2022-11-03T06:58:11;11.85;;;3.35;;
11962;SDS011;62678;52.130;5.584;2022-11-03T07:01:16;17.63;;;3.65;;
11962;SDS011;62678;52.130;5.584;2022-11-03T07:04:20;15.00;;;3.10;;
11962;SDS011;62678;52.130;5.584;2022-11-03T07:06:58;14.77;;;2.85;;
11962;SDS011;62678;52.130;5.584;2022-11-03T07:09:30;13.63;;;3.72;;
11962;SDS011;62678;52.130;5.584;2022-11-03T07:12:10;13.50;;;2.90;;
11962;SDS011;62678;52.130;5.584;2022-11-03T07:15:06;21.30;;;3.75;;
11962;SDS011;62678;52.130;5.584;2022-11-03T07:17:52;14.77;;;3.53;;
11962;SDS011;62678;52.130;5.584;2022-11-03T07:20:42;12.85;;;3.15;;
11962;SDS011;62678;52.130;5.584;2022-11-03T07:23:15;16.05;;;3.00;;
11962;SDS011;62678;52.130;5.584;2022-11-03T07:26:04;12.73;;;3.15;;
11962;SDS011;62678;52.130;5.584;2022-11-03T07:28:39;14.32;;;3.60;;
11962;SDS011;62678;52.130;5.584;2022-11-03T07:31:21;15.70;;;3.28;;
11962;SDS011;62678;52.130;5.584;2022-11-03T07:33:59;18.23;;;3.58;;
11962;SDS011;62678;52.130;5.584;2022-11-03T07:36:33;15.25;;;3.00;;
11962;SDS011;62678;52.130;5.584;2022-11-03T07:39:04;13.88;;;3.15;;
11962;SDS011;62678;52.130;5.584;2022-11-03T07:41:41;13.63;;;3.90;;
11962;SDS011;62678;52.130;5.584;2022-11-03T07:44:12;14.95;;;3.25;;
11962;SDS011;62678;52.130;5.584;2022-11-03T07:46:50;14.02;;;3.60;;
11962;SDS011;62678;52.130;5.584;2022-11-03T07:49:25;11.55;;;2.97;;
11962;SDS011;62678;52.130;5.584;2022-11-03T07:52:06;12.48;;;3.35;;
11962;SDS011;62678;52.130;5.584;2022-11-03T07:54:43;20.98;;;3.33;;
11962;SDS011;62678;52.130;5.584;2022-11-03T07:57:21;14.60;;;3.25;;
11962;SDS011;62678;52.130;5.584;2022-11-03T07:59:51;13.45;;;3.47;;
11962;SDS011;62678;52.130;5.584;2022-11-03T08:02:24;13.82;;;3.50;;
11962;SDS011;62678;52.130;5.584;2022-11-03T08:04:55;13.25;;;3.22;;
11962;SDS011;62678;52.130;5.584;2022-11-03T08:07:24;11.85;;;2.78;;
11962;SDS011;62678;52.130;5.584;2022-11-03T08:09:52;12.65;;;3.17;;
11962;SDS011;62678;52.130;5.584;2022-11-03T08:12:21;11.52;;;2.80;;
11962;SDS011;62678;52.130;5.584;2022-11-03T08:14:55;11.98;;;2.92;;
11962;SDS011;62678;52.130;5.584;2022-11-03T08:17:30;16.20;;;3.80;;
11962;SDS011;62678;52.130;5.584;2022-11-03T08:20:03;12.93;;;3.22;;
11962;SDS011;62678;52.130;5.584;2022-11-03T08:22:37;13.73;;;3.15;;
11962;SDS011;62678;52.130;5.584;2022-11-03T08:25:14;15.35;;;3.25;;
11962;SDS011;62678;52.130;5.584;2022-11-03T08:27:51;18.20;;;3.10;;
11962;SDS011;62678;52.130;5.584;2022-11-03T08:30:20;11.35;;;3.17;;
11962;SDS011;62678;52.130;5.584;2022-11-03T08:32:47;16.15;;;3.35;;
11962;SDS011;62678;52.130;5.584;2022-11-03T08:35:14;13.32;;;3.15;;
11962;SDS011;62678;52.130;5.584;2022-11-03T08:37:42;13.45;;;3.20;;
11962;SDS011;62678;52.130;5.584;2022-11-03T08:40:09;15.45;;;3.05;;
11962;SDS011;62678;52.130;5.584;2022-11-03T08:42:37;11.55;;;2.95;;
11962;SDS011;62678;52.130;5.584;2022-11-03T08:45:04;20.80;;;3.47;;
11962;SDS011;62678;52.130;5.584;2022-11-03T08:47:32;11.82;;;2.80;;
11962;SDS011;62678;52.130;5.584;2022-11-03T08:50:00;13.32;;;3.42;;
11962;SDS011;62678;52.130;5.584;2022-11-03T08:52:27;12.10;;;2.97;;
11962;SDS011;62678;52.130;5.584;2022-11-03T08:54:55;12.82;;;3.50;;
11962;SDS011;62678;52.130;5.584;2022-11-03T08:57:22;12.48;;;3.33;;
11962;SDS011;62678;52.130;5.584;2022-11-03T08:59:49;11.20;;;3.17;;
11962;SDS011;62678;52.130;5.584;2022-11-03T09:02:17;8.23;;;2.75;;
11962;SDS011;62678;52.130;5.584;2022-11-03T09:04:43;14.77;;;3.00;;
11962;SDS011;62678;52.130;5.584;2022-11-03T09:09:37;13.57;;;2.95;;
11962;SDS011;62678;52.130;5.584;2022-11-03T09:12:05;14.63;;;3.55;;
11962;SDS011;62678;52.130;5.584;2022-11-03T09:14:32;12.52;;;3.05;;
11962;SDS011;62678;52.130;5.584;2022-11-03T09:17:01;12.38;;;3.22;;
11962;SDS011;62678;52.130;5.584;2022-11-03T09:19:28;12.35;;;2.65;;
11962;SDS011;62678;52.130;5.584;2022-11-03T09:21:54;8.98;;;2.70;;
11962;SDS011;62678;52.130;5.584;2022-11-03T09:24:23;12.90;;;3.13;;
11962;SDS011;62678;52.130;5.584;2022-11-03T09:26:50;8.50;;;2.88;;
11962;SDS011;62678;52.130;5.584;2022-11-03T09:29:18;15.88;;;2.90;;
11962;SDS011;62678;52.130;5.584;2022-11-03T09:31:45;10.75;;;2.85;;
11962;SDS011;62678;52.130;5.584;2022-11-03T09:34:12;13.95;;;3.30;;
11962;SDS011;62678;52.130;5.584;2022-11-03T09:53:11;8.68;;;3.15;;
11962;SDS011;62678;52.130;5.584;2022-11-03T09:55:38;15.00;;;3.30;;
11962;SDS011;62678;52.130;5.584;2022-11-03T10:13:44;11.85;;;2.78;;
11962;SDS011;62678;52.130;5.584;2022-11-03T10:16:14;11.63;;;3.10;;
11962;SDS011;62678;52.130;5.584;2022-11-03T10:18:43;10.45;;;3.20;;
11962;SDS011;62678;52.130;5.584;2022-11-03T10:26:58;14.82;;;3.55;;
11962;SDS011;62678;52.130;5.584;2022-11-03T10:29:26;12.40;;;3.35;;
11962;SDS011;62678;52.130;5.584;2022-11-03T10:31:54;13.13;;;3.58;;
11962;SDS011;62678;52.130;5.584;2022-11-03T10:34:23;10.25;;;3.42;;
11962;SDS011;62678;52.130;5.584;2022-11-03T10:39:44;9.65;;;3.08;;
11962;SDS011;62678;52.130;5.584;2022-11-03T10:42:17;11.68;;;3.15;;
11962;SDS011;62678;52.130;5.584;2022-11-03T10:44:47;9.68;;;2.58;;
11962;SDS011;62678;52.130;5.584;2022-11-03T10:47:22;14.07;;;3.10;;
11962;SDS011;62678;52.130;5.584;2022-11-03T10:49:51;7.53;;;2.65;;
11962;SDS011;62678;52.130;5.584;2022-11-03T10:52:20;9.02;;;2.58;;
11962;SDS011;62678;52.130;5.584;2022-11-03T10:54:49;11.43;;;2.88;;
11962;SDS011;62678;52.130;5.584;2022-11-03T10:59:54;17.25;;;2.70;;
11962;SDS011;62678;52.130;5.584;2022-11-03T11:02:23;12.63;;;2.85;;
11962;SDS011;62678;52.130;5.584;2022-11-03T11:04:56;12.15;;;3.20;;
11962;SDS011;62678;52.130;5.584;2022-11-03T11:07:26;12.75;;;3.13;;
11962;SDS011;62678;52.130;5.584;2022-11-03T11:09:57;13.18;;;3.00;;
11962;SDS011;62678;52.130;5.584;2022-11-03T11:12:31;10.60;;;2.85;;
11962;SDS011;62678;52.130;5.584;2022-11-03T11:15:00;10.10;;;3.25;;
11962;SDS011;62678;52.130;5.584;2022-11-03T11:20:17;7.68;;;2.40;;
11962;SDS011;62678;52.130;5.584;2022-11-03T11:26:12;12.23;;;2.95;;
11962;SDS011;62678;52.130;5.584;2022-11-03T11:35:16;9.00;;;2.60;;
11962;SDS011;62678;52.130;5.584;2022-11-03T11:41:02;9.30;;;2.50;;
11962;SDS011;62678;52.130;5.584;2022-11-03T11:43:29;9.95;;;2.80;;
11962;SDS011;62678;52.130;5.584;2022-11-03T11:49:17;7.85;;;2.50;;
11962;SDS011;62678;52.130;5.584;2022-11-03T11:51:45;10.35;;;2.80;;
11962;SDS011;62678;52.130;5.584;2022-11-03T11:54:14;10.68;;;2.97;;
11962;SDS011;62678;52.130;5.584;2022-11-03T11:56:44;10.30;;;3.00;;
11962;SDS011;62678;52.130;5.584;2022-11-03T11:59:16;9.75;;;3.08;;
11962;SDS011;62678;52.130;5.584;2022-11-03T12:01:46;7.72;;;2.63;;
11962;SDS011;62678;52.130;5.584;2022-11-03T12:04:16;9.52;;;2.85;;
11962;SDS011;62678;52.130;5.584;2022-11-03T12:06:46;10.52;;;3.35;;
11962;SDS011;62678;52.130;5.584;2022-11-03T12:09:15;9.48;;;2.45;;
11962;SDS011;62678;52.130;5.584;2022-11-03T12:11:44;9.10;;;2.90;;
11962;SDS011;62678;52.130;5.584;2022-11-03T12:14:21;8.02;;;2.50;;
11962;SDS011;62678;52.130;5.584;2022-11-03T12:16:49;9.88;;;2.92;;
11962;SDS011;62678;52.130;5.584;2022-11-03T12:19:36;11.00;;;2.53;;
11962;SDS011;62678;52.130;5.584;2022-11-03T12:22:07;11.85;;;2.78;;
11962;SDS011;62678;52.130;5.584;2022-11-03T12:24:36;8.02;;;2.83;;
11962;SDS011;62678;52.130;5.584;2022-11-03T12:27:15;12.45;;;2.97;;
11962;SDS011;62678;52.130;5.584;2022-11-03T12:30:01;11.55;;;3.20;;
11962;SDS011;62678;52.130;5.584;2022-11-03T12:32:29;11.27;;;2.95;;
11962;SDS011;62678;52.130;5.584;2022-11-03T12:34:56;5.95;;;2.22;;
11962;SDS011;62678;52.130;5.584;2022-11-03T12:37:25;9.40;;;2.80;;
11962;SDS011;62678;52.130;5.584;2022-11-03T12:39:51;9.02;;;2.58;;
11962;SDS011;62678;52.130;5.584;2022-11-03T12:42:18;7.20;;;2.40;;
11962;SDS011;62678;52.130;5.584;2022-11-03T12:44:46;7.95;;;2.28;;
11962;SDS011;62678;52.130;5.584;2022-11-03T12:47:13;6.82;;;2.20;;
11962;SDS011;62678;52.130;5.584;2022-11-03T12:49:40;9.32;;;2.30;;
11962;SDS011;62678;52.130;5.584;2022-11-03T12:52:07;8.65;;;2.58;;
11962;SDS011;62678;52.130;5.584;2022-11-03T12:54:35;7.28;;;2.30;;
11962;SDS011;62678;52.130;5.584;2022-11-03T12:57:03;6.70;;;2.10;;
11962;SDS011;62678;52.130;5.584;2022-11-03T12:59:30;9.43;;;2.58;;
11962;SDS011;62678;52.130;5.584;2022-11-03T13:01:57;9.13;;;2.38;;
11962;SDS011;62678;52.130;5.584;2022-11-03T13:04:24;8.02;;;2.22;;
11962;SDS011;62678;52.130;5.584;2022-11-03T13:06:50;9.27;;;2.35;;
11962;SDS011;62678;52.130;5.584;2022-11-03T13:09:17;8.95;;;2.00;;
11962;SDS011;62678;52.130;5.584;2022-11-03T13:11:46;6.07;;;1.80;;
11962;SDS011;62678;52.130;5.584;2022-11-03T13:14:30;6.10;;;2.17;;
11962;SDS011;62678;52.130;5.584;2022-11-03T13:16:57;9.95;;;4.40;;
11962;SDS011;62678;52.130;5.584;2022-11-03T13:19:24;8.27;;;2.92;;
11962;SDS011;62678;52.130;5.584;2022-11-03T13:21:50;9.57;;;2.60;;
11962;SDS011;62678;52.130;5.584;2022-11-03T13:24:17;5.80;;;2.03;;
11962;SDS011;62678;52.130;5.584;2022-11-03T13:26:44;8.32;;;2.17;;
11962;SDS011;62678;52.130;5.584;2022-11-03T13:29:12;6.65;;;2.58;;
11962;SDS011;62678;52.130;5.584;2022-11-03T13:31:39;8.93;;;2.60;;
11962;SDS011;62678;52.130;5.584;2022-11-03T13:34:06;8.50;;;2.28;;
11962;SDS011;62678;52.130;5.584;2022-11-03T13:36:32;8.07;;;2.38;;
11962;SDS011;62678;52.130;5.584;2022-11-03T13:38:59;7.47;;;2.45;;
11962;SDS011;62678;52.130;5.584;2022-11-03T13:41:26;11.77;;;2.30;;
11962;SDS011;62678;52.130;5.584;2022-11-03T13:43:53;8.38;;;2.40;;
11962;SDS011;62678;52.130;5.584;2022-11-03T13:46:21;12.25;;;2.22;;
11962;SDS011;62678;52.130;5.584;2022-11-03T13:48:48;10.05;;;2.63;;
11962;SDS011;62678;52.130;5.584;2022-11-03T13:51:14;5.95;;;2.30;;
11962;SDS011;62678;52.130;5.584;2022-11-03T13:53:43;12.15;;;2.35;;
11962;SDS011;62678;52.130;5.584;2022-11-03T13:56:09;8.52;;;2.78;;
11962;SDS011;62678;52.130;5.584;2022-11-03T13:58:36;7.65;;;2.55;;
11962;SDS011;62678;52.130;5.584;2022-11-03T14:01:03;6.03;;;2.40;;
11962;SDS011;62678;52.130;5.584;2022-11-03T14:03:31;6.85;;;2.67;;
11962;SDS011;62678;52.130;5.584;2022-11-03T14:05:58;5.72;;;2.40;;
11962;SDS011;62678;52.130;5.584;2022-11-03T14:08:25;7.18;;;2.40;;
11962;SDS011;62678;52.130;5.584;2022-11-03T14:10:51;10.73;;;3.33;;
11962;SDS011;62678;52.130;5.584;2022-11-03T14:13:18;11.25;;;4.18;;
11962;SDS011;62678;52.130;5.584;2022-11-03T14:15:44;12.10;;;3.55;;
11962;SDS011;62678;52.130;5.584;2022-11-03T14:18:11;7.13;;;3.10;;
11962;SDS011;62678;52.130;5.584;2022-11-03T14:20:39;12.00;;;3.55;;
11962;SDS011;62678;52.130;5.584;2022-11-03T14:23:05;7.75;;;2.45;;
11962;SDS011;62678;52.130;5.584;2022-11-03T14:25:32;10.65;;;3.00;;
11962;SDS011;62678;52.130;5.584;2022-11-03T14:27:59;5.57;;;2.83;;
11962;SDS011;62678;52.130;5.584;2022-11-03T14:30:26;6.38;;;2.70;;
11962;SDS011;62678;52.130;5.584;2022-11-03T14:32:53;8.75;;;2.80;;
11962;SDS011;62678;52.130;5.584;2022-11-03T14:35:19;7.85;;;2.40;;
11962;SDS011;62678;52.130;5.584;2022-11-03T14:37:49;7.82;;;2.72;;
11962;SDS011;62678;52.130;5.584;2022-11-03T14:40:15;9.82;;;3.03;;
11962;SDS011;62678;52.130;5.584;2022-11-03T14:42:56;6.70;;;2.72;;
11962;SDS011;62678;52.130;5.584;2022-11-03T14:45:23;7.25;;;2.40;;
11962;SDS011;62678;52.130;5.584;2022-11-03T14:47:50;6.57;;;2.90;;
11962;SDS011;62678;52.130;5.584;2022-11-03T14:50:17;10.57;;;2.78;;
11962;SDS011;62678;52.130;5.584;2022-11-03T14:52:44;7.70;;;2.53;;
11962;SDS011;62678;52.130;5.584;2022-11-03T14:55:12;7.80;;;2.63;;
11962;SDS011;62678;52.130;5.584;2022-11-03T14:57:38;10.18;;;2.60;;
11962;SDS011;62678;52.130;5.584;2022-11-03T15:00:06;9.20;;;2.55;;
11962;SDS011;62678;52.130;5.584;2022-11-03T15:02:35;7.78;;;2.70;;
11962;SDS011;62678;52.130;5.584;2022-11-03T15:05:02;9.65;;;4.68;;
11962;SDS011;62678;52.130;5.584;2022-11-03T15:07:29;9.75;;;2.67;;
11962;SDS011;62678;52.130;5.584;2022-11-03T15:09:56;5.95;;;2.53;;
11962;SDS011;62678;52.130;5.584;2022-11-03T15:12:24;7.93;;;2.70;;
11962;SDS011;62678;52.130;5.584;2022-11-03T15:14:51;6.80;;;2.17;;
11962;SDS011;62678;52.130;5.584;2022-11-03T15:17:19;7.15;;;2.97;;
11962;SDS011;62678;52.130;5.584;2022-11-03T15:19:46;8.95;;;2.30;;
11962;SDS011;62678;52.130;5.584;2022-11-03T15:22:12;5.05;;;2.08;;
11962;SDS011;62678;52.130;5.584;2022-11-03T15:24:39;4.25;;;2.00;;
11962;SDS011;62678;52.130;5.584;2022-11-03T15:27:06;5.50;;;2.05;;
11962;SDS011;62678;52.130;5.584;2022-11-03T15:29:34;7.97;;;2.13;;
11962;SDS011;62678;52.130;5.584;2022-11-03T15:32:17;9.13;;;2.53;;
11962;SDS011;62678;52.130;5.584;2022-11-03T15:34:43;12.45;;;2.85;;
11962;SDS011;62678;52.130;5.584;2022-11-03T15:37:10;9.32;;;2.38;;
11962;SDS011;62678;52.130;5.584;2022-11-03T15:39:37;10.93;;;2.40;;
11962;SDS011;62678;52.130;5.584;2022-11-03T15:42:04;7.00;;;2.75;;
11962;SDS011;62678;52.130;5.584;2022-11-03T15:44:31;7.40;;;2.45;;
11962;SDS011;62678;52.130;5.584;2022-11-03T15:46:59;6.90;;;2.78;;
11962;SDS011;62678;52.130;5.584;2022-11-03T15:49:25;5.57;;;2.15;;
11962;SDS011;62678;52.130;5.584;2022-11-03T15:51:52;6.47;;;2.30;;
11962;SDS011;62678;52.130;5.584;2022-11-03T15:54:19;5.38;;;2.28;;
11962;SDS011;62678;52.130;5.584;2022-11-03T15:56:46;4.28;;;2.47;;
11962;SDS011;62678;52.130;5.584;2022-11-03T15:59:13;5.97;;;2.60;;
11962;SDS011;62678;52.130;5.584;2022-11-03T16:01:39;7.30;;;2.78;;
11962;SDS011;62678;52.130;5.584;2022-11-03T16:04:07;9.55;;;2.67;;